createdAt,value
2019-05-12T00:03:37.743Z,45.80
2019-05-12T00:13:43.063Z,45.90
2019-05-12T00:24:07.905Z,45.90
2019-05-12T00:34:18.219Z,46.00
2019-05-12T00:44:23.228Z,46.00
2019-05-12T00:54:28.721Z,46.00
2019-05-12T01:04:34.141Z,46.00
2019-05-12T01:14:39.641Z,46.10
2019-05-12T01:24:45.104Z,46.20
2019-05-12T01:34:50.763Z,46.20
2019-05-12T01:44:58.392Z,46.10
2019-05-12T01:55:03.465Z,46.20
2019-05-12T02:05:10.349Z,46.20
2019-05-12T02:15:18.386Z,46.40
2019-05-12T02:25:23.918Z,46.30
2019-05-12T02:35:29.622Z,46.20
2019-05-12T02:45:35.913Z,46.20
2019-05-12T02:55:44.781Z,46.20
2019-05-12T03:05:48.718Z,46.30
2019-05-12T03:15:54.904Z,46.40
2019-05-12T03:26:00.591Z,46.40
2019-05-12T03:36:09.322Z,46.40
2019-05-12T03:46:15.301Z,46.40
2019-05-12T03:56:20.499Z,46.40
2019-05-12T04:06:25.891Z,46.40
2019-05-12T04:16:31.355Z,46.50
2019-05-12T04:26:37.032Z,46.50
2019-05-12T04:36:44.894Z,46.40
2019-05-12T04:46:50.893Z,46.50
2019-05-12T04:56:56.316Z,46.50
2019-05-12T05:07:04.350Z,46.40
2019-05-12T05:17:09.164Z,46.50
2019-05-12T05:27:14.570Z,46.50
2019-05-12T05:37:20.144Z,46.50
2019-05-12T05:47:28.637Z,46.40
2019-05-12T05:57:33.612Z,47.00
2019-05-12T06:07:39.368Z,46.50
2019-05-12T06:17:44.873Z,46.40
2019-05-12T06:27:51.185Z,46.40
2019-05-12T06:38:01.533Z,46.60
2019-05-12T06:48:04.845Z,46.50
2019-05-12T06:58:10.339Z,47.30
2019-05-12T07:08:20.143Z,47.30
2019-05-12T07:18:32.209Z,47.40
2019-05-12T07:28:36.284Z,47.30
2019-05-12T07:38:38.025Z,46.60
2019-05-12T07:48:48.899Z,46.40
2019-05-12T07:58:54.773Z,46.30
2019-05-12T08:09:00.061Z,46.70
2019-05-12T08:19:08.297Z,46.60
2019-05-12T08:29:16.990Z,47.40
2019-05-12T08:39:22.822Z,48.20
2019-05-12T08:49:27.034Z,47.90
2019-05-12T08:59:34.164Z,48.60
2019-05-12T09:09:39.846Z,48.80
2019-05-12T09:19:45.293Z,49.10
2019-05-12T09:29:50.648Z,50.20
2019-05-12T09:39:56.076Z,50.20
2019-05-12T09:50:04.167Z,49.40
2019-05-12T10:00:10.158Z,49.70
2019-05-12T10:10:17.228Z,50.00
2019-05-12T10:20:24.191Z,50.50
2019-05-12T10:30:31.240Z,50.20
2019-05-12T10:40:39.520Z,49.10
2019-05-12T10:50:45.357Z,51.00
2019-05-12T11:00:50.728Z,50.60
2019-05-12T11:11:01.137Z,51.40
2019-05-12T11:21:05.267Z,50.70
2019-05-12T11:31:10.689Z,53.50
2019-05-12T11:41:20.203Z,51.20
2019-05-12T11:51:30.247Z,48.70
2019-05-12T12:01:34.576Z,41.90
2019-05-12T12:11:39.945Z,43.20
2019-05-12T12:21:48.730Z,42.00
2019-05-12T12:31:54.212Z,42.30
2019-05-12T12:42:00.685Z,43.20
2019-05-12T12:52:06.868Z,43.30
2019-05-12T13:02:14.228Z,44.90
2019-05-12T13:12:21.094Z,44.40
2019-05-12T13:22:29.572Z,44.90
2019-05-12T13:32:37.873Z,45.00
2019-05-12T13:42:43.765Z,45.20
2019-05-12T13:52:49.389Z,45.20
2019-05-12T14:03:03.303Z,45.20
2019-05-12T14:13:03.579Z,45.50
2019-05-12T14:23:09.549Z,45.60
2019-05-12T14:33:18.448Z,45.50
2019-05-12T14:43:24.619Z,45.70
2019-05-12T14:53:32.964Z,45.80
2019-05-12T15:03:42.200Z,45.90
2019-05-12T15:13:45.874Z,46.00
2019-05-12T15:23:53.406Z,46.00
2019-05-12T15:33:59.147Z,45.60
2019-05-12T15:44:06.504Z,46.10
2019-05-12T15:54:14.605Z,46.40
2019-05-12T16:04:19.714Z,46.40
2019-05-12T16:14:25.229Z,46.10
2019-05-12T16:24:30.617Z,44.30
2019-05-12T16:34:44.911Z,46.00
2019-05-12T16:44:44.040Z,45.30
2019-05-12T16:54:49.494Z,45.00
2019-05-12T17:04:57.434Z,46.20
2019-05-12T17:15:04.107Z,46.70
2019-05-12T17:25:10.505Z,47.10
2019-05-12T17:35:20.175Z,47.50
2019-05-12T17:45:25.506Z,47.60
2019-05-12T17:55:30.930Z,47.90
2019-05-12T18:05:36.306Z,47.90
2019-05-12T18:15:44.033Z,48.10
2019-05-12T18:25:50.881Z,48.20
2019-05-12T18:35:56.337Z,48.20
2019-05-12T18:46:06.324Z,48.40
2019-05-12T18:56:10.240Z,48.60
2019-05-12T19:06:16.119Z,48.60
2019-05-12T19:16:23.658Z,48.50
2019-05-12T19:26:32.922Z,48.70
2019-05-12T19:36:43.971Z,48.50
2019-05-12T19:46:46.093Z,48.60
2019-05-12T19:56:50.049Z,48.70
2019-05-12T20:06:55.718Z,48.70
2019-05-12T20:17:01.121Z,48.60
2019-05-12T20:27:10.584Z,48.80
2019-05-12T20:37:16.777Z,48.70
2019-05-12T20:47:23.452Z,48.60
2019-05-12T20:57:28.985Z,48.70
2019-05-12T21:07:34.480Z,48.60
2019-05-12T21:17:43.622Z,48.60
2019-05-12T21:27:47.922Z,48.50
2019-05-12T21:37:53.833Z,48.50
2019-05-12T21:47:59.219Z,48.80
2019-05-12T21:58:10.604Z,48.70
2019-05-12T22:08:20.815Z,48.60
2019-05-12T22:18:21.218Z,48.70
2019-05-12T22:28:26.604Z,48.60
2019-05-12T22:38:34.011Z,48.70
2019-05-12T22:48:40.651Z,48.60
2019-05-12T22:58:46.230Z,48.40
2019-05-12T23:08:54.255Z,45.90
2019-05-12T23:19:10.285Z,42.60
2019-05-12T23:29:09.194Z,44.60
2019-05-12T23:40:00.518Z,45.10
2019-05-12T23:50:06.406Z,46.10
